Theriot, Louisiana
Current Conditions -  °F | °C
As of 9:47 AM on Thursday 23 Oct 2014 (Local Time) from KHUM Reporting Station
Clear Clear  
Wind Chill: 66°   Ceiling: Unl
Heat Index: 66°   Visibility: 7mi
Dew Point: 55°   Wind: 10mph
Humidity: 68%   Direction: 30°NNE
Pressure: 30.11"   Gusts: NA
Location:  29.46°N, 90.75°W
Report Text: KHUM 231447Z AUTO 03009KT 7SM SKC 19/13 A3011 RMK ATIS NOVEMBER VA/RY36 MS
Loading
Personal Weather Stations






























Interactive Weather Map
Tropical Storm Tracking
New forecast layout! Learn more

10-Day Weather Forecast

Advertisements
Track Severe Weather on mobile